createdAt,value
2018-01-14T00:00:08.435Z,7.08
2018-01-14T00:01:18.296Z,7.09
2018-01-14T00:02:28.077Z,7.08
2018-01-14T00:03:37.021Z,7.14
2018-01-14T00:04:46.846Z,7.08
2018-01-14T00:05:56.897Z,7.09
2018-01-14T00:07:06.626Z,7.08
2018-01-14T00:08:16.357Z,7.12
2018-01-14T00:09:25.879Z,7.05
2018-01-14T00:10:35.124Z,7.08
2018-01-14T00:11:44.579Z,7.04
2018-01-14T00:12:54.053Z,7.14
2018-01-14T00:14:03.523Z,7.05
2018-01-14T00:15:13.252Z,7.12
2018-01-14T00:16:23.013Z,7.07
2018-01-14T00:17:32.203Z,7.04
2018-01-14T00:18:41.658Z,7.07
2018-01-14T00:19:50.591Z,7.05
2018-01-14T00:20:59.791Z,7.15
2018-01-14T00:22:09.782Z,7.07
2018-01-14T00:23:18.973Z,7.07
2018-01-14T00:24:28.162Z,7.11
2018-01-14T00:25:37.880Z,7.16
2018-01-14T00:26:47.713Z,7.04
2018-01-14T00:27:57.170Z,7.08
2018-01-14T00:29:06.107Z,7.07
2018-01-14T00:30:16.171Z,7.12
2018-01-14T00:31:26.225Z,7.05
2018-01-14T00:32:35.432Z,7.07
2018-01-14T00:33:45.157Z,7.14
2018-01-14T00:34:54.925Z,7.14
2018-01-14T00:36:04.384Z,7.16
2018-01-14T00:37:13.578Z,7.05
2018-01-14T00:38:22.775Z,7.12
2018-01-14T00:39:32.513Z,7.08
2018-01-14T00:40:42.502Z,7.16
2018-01-14T00:41:52.220Z,7.07
2018-01-14T00:43:01.424Z,7.07
2018-01-14T00:44:10.621Z,7.15
2018-01-14T00:45:20.071Z,7.14
2018-01-14T00:46:29.263Z,7.18
2018-01-14T00:47:38.728Z,7.15
2018-01-14T00:48:47.656Z,7.15
2018-01-14T00:49:57.133Z,7.08
2018-01-14T00:51:06.334Z,7.01
2018-01-14T00:52:16.055Z,7.04
2018-01-14T00:53:25.544Z,7.05
2018-01-14T00:54:35.039Z,7.08
2018-01-14T00:55:43.967Z,7.09
2018-01-14T00:56:53.159Z,7.08
2018-01-14T00:58:02.883Z,7.08
2018-01-14T00:59:12.081Z,7.08
2018-01-14T01:00:21.806Z,7.08
2018-01-14T01:01:31.544Z,7.18
2018-01-14T01:02:41.263Z,7.08
2018-01-14T01:03:51.000Z,7.05
2018-01-14T01:05:00.465Z,7.09
2018-01-14T01:06:09.929Z,7.16
2018-01-14T01:07:19.914Z,7.11
2018-01-14T01:08:29.377Z,7.15
2018-01-14T01:09:38.598Z,7.08
2018-01-14T01:10:48.590Z,7.05
2018-01-14T01:11:58.320Z,7.08
2018-01-14T01:13:07.264Z,7.05
2018-01-14T01:14:17.246Z,7.07
2018-01-14T01:15:26.973Z,7.09
2018-01-14T01:16:36.739Z,7.11
2018-01-14T01:17:46.464Z,7.12
2018-01-14T01:18:55.682Z,7.05
2018-01-14T01:20:05.673Z,7.04
2018-01-14T01:21:14.864Z,7.07
2018-01-14T01:22:24.072Z,7.04
2018-01-14T01:23:33.547Z,7.09
2018-01-14T01:24:43.009Z,7.07
2018-01-14T01:25:52.731Z,7.07
2018-01-14T01:27:02.447Z,6.99
2018-01-14T01:28:11.902Z,7.05
2018-01-14T01:29:21.376Z,7.01
2018-01-14T01:30:30.565Z,7.09
2018-01-14T01:31:40.293Z,7.08
2018-01-14T01:32:49.225Z,7.01
2018-01-14T01:33:58.428Z,7.11
2018-01-14T01:35:08.149Z,7.08
2018-01-14T01:36:17.619Z,7.11
2018-01-14T01:37:27.072Z,7.08
2018-01-14T01:38:36.527Z,7.05
2018-01-14T01:39:45.987Z,7.11
2018-01-14T01:40:55.706Z,7
2018-01-14T01:42:05.691Z,6.97
2018-01-14T01:43:15.150Z,7.04
2018-01-14T01:44:24.603Z,7.07
2018-01-14T01:45:34.744Z,6.9
2018-01-14T01:46:44.470Z,7.05
2018-01-14T01:47:53.927Z,7.08
2018-01-14T01:49:03.650Z,6.91
2018-01-14T01:50:13.113Z,7.04
2018-01-14T01:51:22.569Z,6.97
2018-01-14T01:52:32.289Z,7.05
2018-01-14T01:53:41.493Z,6.97
2018-01-14T01:54:50.992Z,6.93
2018-01-14T01:56:00.714Z,6.99
2018-01-14T01:57:09.902Z,6.99
2018-01-14T01:58:19.922Z,7.05
2018-01-14T01:59:29.418Z,6.99
2018-01-14T02:00:39.201Z,6.97
2018-01-14T02:01:48.953Z,6.96
2018-01-14T02:02:58.729Z,7
2018-01-14T02:04:08.189Z,6.91
2018-01-14T02:05:17.908Z,6.94
2018-01-14T02:06:27.627Z,6.97
2018-01-14T02:07:36.848Z,6.93
2018-01-14T02:08:46.042Z,6.97
2018-01-14T02:09:55.239Z,6.9
2018-01-14T02:11:04.967Z,6.87
2018-01-14T02:12:13.904Z,6.99
2018-01-14T02:13:23.884Z,7
2018-01-14T02:14:33.345Z,7.01
2018-01-14T02:15:42.806Z,6.99
2018-01-14T02:16:52.270Z,6.96
2018-01-14T02:18:01.980Z,7
2018-01-14T02:19:11.454Z,6.97
2018-01-14T02:20:21.433Z,6.89
2018-01-14T02:21:30.893Z,7
2018-01-14T02:22:40.689Z,6.93
2018-01-14T02:23:50.158Z,6.93
2018-01-14T02:24:59.165Z,6.89
2018-01-14T02:26:08.617Z,6.99
2018-01-14T02:27:18.643Z,6.94
2018-01-14T02:28:28.373Z,6.91
2018-01-14T02:29:38.119Z,6.89
2018-01-14T02:30:47.588Z,6.9
2018-01-14T02:31:57.463Z,6.87
2018-01-14T02:33:06.669Z,6.81
2018-01-14T02:34:16.444Z,6.83
2018-01-14T02:35:25.905Z,6.82
2018-01-14T02:36:35.625Z,6.93
2018-01-14T02:37:45.619Z,6.83
2018-01-14T02:38:54.799Z,6.87
2018-01-14T02:40:04.794Z,6.91
2018-01-14T02:41:14.006Z,6.82
2018-01-14T02:42:23.998Z,6.83
2018-01-14T02:43:33.774Z,6.73
2018-01-14T02:44:43.225Z,6.81
2018-01-14T02:45:52.946Z,6.81
2018-01-14T02:47:02.670Z,6.79
2018-01-14T02:48:12.272Z,6.71
2018-01-14T02:49:21.752Z,6.76
2018-01-14T02:50:31.262Z,6.69
2018-01-14T02:51:40.459Z,6.75
2018-01-14T02:52:49.657Z,6.79
2018-01-14T02:53:58.855Z,6.71
2018-01-14T02:55:08.583Z,6.79
2018-01-14T02:56:18.565Z,6.73
2018-01-14T02:57:27.760Z,6.73
2018-01-14T02:58:37.225Z,6.75
2018-01-14T02:59:46.950Z,6.75
2018-01-14T03:00:56.737Z,6.69
2018-01-14T03:02:06.488Z,6.75
2018-01-14T03:03:15.942Z,6.73
2018-01-14T03:04:25.135Z,6.73
2018-01-14T03:05:35.000Z,6.73
2018-01-14T03:06:44.456Z,6.75
2018-01-14T03:07:54.456Z,6.72
2018-01-14T03:09:03.944Z,6.76
2018-01-14T03:10:13.690Z,6.72
2018-01-14T03:11:23.217Z,6.68
2018-01-14T03:12:32.682Z,6.76
2018-01-14T03:13:42.472Z,6.72
2018-01-14T03:14:51.406Z,6.69
2018-01-14T03:16:00.878Z,6.69
2018-01-14T03:17:10.470Z,6.73
2018-01-14T03:18:20.445Z,6.76
2018-01-14T03:19:30.428Z,6.78
2018-01-14T03:20:40.627Z,6.73
2018-01-14T03:21:50.384Z,6.72
2018-01-14T03:23:00.107Z,6.76
2018-01-14T03:24:09.561Z,6.68
2018-01-14T03:25:19.349Z,6.76
2018-01-14T03:26:28.549Z,6.72
2018-01-14T03:27:38.529Z,6.78
2018-01-14T03:28:48.400Z,6.73
2018-01-14T03:29:57.857Z,6.73
2018-01-14T03:31:07.325Z,6.78
2018-01-14T03:32:17.302Z,6.71
2018-01-14T03:33:26.759Z,6.75
2018-01-14T03:34:36.226Z,6.72
2018-01-14T03:35:45.681Z,6.73
2018-01-14T03:36:55.134Z,6.73
2018-01-14T03:38:04.846Z,6.75
2018-01-14T03:39:14.313Z,6.71
2018-01-14T03:40:24.294Z,6.68
2018-01-14T03:41:34.337Z,6.65
2018-01-14T03:42:44.009Z,6.64
2018-01-14T03:43:53.732Z,6.6
2018-01-14T03:45:03.466Z,6.58
2018-01-14T03:46:13.061Z,6.6
2018-01-14T03:47:23.046Z,6.55
2018-01-14T03:48:31.706Z,6.63
2018-01-14T03:49:41.688Z,6.63
2018-01-14T03:50:51.408Z,6.57
2018-01-14T03:52:00.648Z,6.58
2018-01-14T03:53:10.110Z,6.65
2018-01-14T03:54:20.091Z,6.68
2018-01-14T03:55:29.805Z,6.65
2018-01-14T03:56:39.523Z,6.71
2018-01-14T03:57:49.297Z,6.78
2018-01-14T03:58:58.489Z,6.75
2018-01-14T04:00:08.291Z,6.75
2018-01-14T04:01:18.008Z,6.71
2018-01-14T04:02:27.217Z,6.73
2018-01-14T04:03:37.355Z,6.69
2018-01-14T04:04:46.544Z,6.69
2018-01-14T04:05:56.605Z,6.63
2018-01-14T04:07:06.373Z,6.63
2018-01-14T04:08:16.364Z,6.71
2018-01-14T04:09:26.090Z,6.76
2018-01-14T04:10:36.086Z,6.72
2018-01-14T04:11:45.531Z,6.6
2018-01-14T04:12:55.504Z,6.73
2018-01-14T04:14:04.976Z,6.65
2018-01-14T04:15:14.166Z,6.65
2018-01-14T04:16:23.894Z,6.61
2018-01-14T04:17:33.362Z,6.63
2018-01-14T04:18:42.809Z,6.68
2018-01-14T04:19:52.796Z,6.69
2018-01-14T04:21:02.669Z,6.58
2018-01-14T04:22:12.142Z,6.5
2018-01-14T04:23:22.124Z,6.64
2018-01-14T04:24:32.138Z,6.5
2018-01-14T04:25:41.861Z,6.55
2018-01-14T04:26:51.046Z,6.53
2018-01-14T04:28:00.759Z,6.58
2018-01-14T04:29:09.721Z,6.58
2018-01-14T04:30:19.223Z,6.54
2018-01-14T04:31:28.428Z,6.58
2018-01-14T04:32:38.138Z,6.54
2018-01-14T04:33:47.343Z,6.51
2018-01-14T04:34:57.326Z,6.51
2018-01-14T04:36:07.223Z,6.55
2018-01-14T04:37:16.932Z,6.54
2018-01-14T04:38:26.914Z,6.58
2018-01-14T04:39:36.622Z,6.6
2018-01-14T04:40:46.330Z,6.4
2018-01-14T04:41:55.783Z,6.57
2018-01-14T04:43:05.240Z,6.48
2018-01-14T04:44:14.974Z,6.48
2018-01-14T04:45:24.462Z,6.48
2018-01-14T04:46:34.194Z,6.42
2018-01-14T04:47:43.654Z,6.45
2018-01-14T04:48:53.410Z,6.46
2018-01-14T04:50:02.337Z,6.39
2018-01-14T04:51:12.157Z,6.57
2018-01-14T04:52:22.070Z,6.48
2018-01-14T04:53:31.578Z,6.53
2018-01-14T04:54:41.301Z,6.46
2018-01-14T04:55:50.646Z,6.48
2018-01-14T04:57:00.100Z,6.4
2018-01-14T04:58:09.291Z,6.33
2018-01-14T04:59:18.482Z,6.28
2018-01-14T05:00:27.677Z,6.27
2018-01-14T05:01:36.871Z,6.3
2018-01-14T05:02:46.859Z,6.27
2018-01-14T05:03:56.314Z,6.27
2018-01-14T05:05:05.776Z,6.19
2018-01-14T05:06:15.548Z,6.21
2018-01-14T05:07:25.269Z,6.24
2018-01-14T05:08:34.719Z,6.1
2018-01-14T05:09:43.904Z,6.13
2018-01-14T05:10:53.362Z,6.06
2018-01-14T05:12:02.835Z,6.1
2018-01-14T05:13:12.448Z,6.03
2018-01-14T05:14:22.167Z,6.03
2018-01-14T05:15:31.624Z,6.03
2018-01-14T05:16:41.341Z,6.06
2018-01-14T05:17:50.534Z,6.02
2018-01-14T05:19:00.530Z,6.1
2018-01-14T05:20:09.992Z,6.01
2018-01-14T05:21:19.713Z,6.06
2018-01-14T05:22:28.639Z,6.06
2018-01-14T05:23:38.449Z,6.11
2018-01-14T05:24:48.262Z,6.02
2018-01-14T05:25:57.458Z,6.05
2018-01-14T05:27:06.919Z,6.08
2018-01-14T05:28:16.368Z,6.06
2018-01-14T05:29:25.815Z,5.96
2018-01-14T05:30:35.535Z,6.03
2018-01-14T05:31:44.994Z,5.98
2018-01-14T05:32:54.716Z,5.98
2018-01-14T05:34:04.163Z,6.02
2018-01-14T05:35:13.873Z,5.96
2018-01-14T05:36:22.800Z,6.01
2018-01-14T05:37:32.249Z,5.96
2018-01-14T05:38:41.446Z,5.98
2018-01-14T05:39:51.169Z,5.96
2018-01-14T05:41:00.094Z,5.93
2018-01-14T05:42:09.546Z,6.03
2018-01-14T05:43:18.468Z,5.99
2018-01-14T05:44:28.457Z,5.95
2018-01-14T05:45:38.453Z,5.85
2018-01-14T05:46:48.435Z,5.92
2018-01-14T05:47:57.883Z,5.95
2018-01-14T05:49:07.868Z,5.85
2018-01-14T05:50:17.312Z,5.87
2018-01-14T05:51:27.033Z,5.88
2018-01-14T05:52:37.018Z,5.84
2018-01-14T05:53:46.213Z,5.81
2018-01-14T05:54:55.934Z,5.81
2018-01-14T05:56:05.397Z,5.84
2018-01-14T05:57:14.338Z,5.8
2018-01-14T05:58:24.053Z,5.87
2018-01-14T05:59:33.670Z,5.85
2018-01-14T06:00:43.118Z,5.9
2018-01-14T06:01:52.590Z,5.8
2018-01-14T06:03:02.300Z,5.78
2018-01-14T06:04:11.764Z,5.83
2018-01-14T06:05:20.959Z,5.81
2018-01-14T06:06:30.415Z,5.83
2018-01-14T06:07:40.120Z,5.75
2018-01-14T06:08:50.096Z,5.77
2018-01-14T06:10:00.075Z,5.78
2018-01-14T06:11:08.741Z,5.73
2018-01-14T06:12:18.470Z,5.75
2018-01-14T06:13:27.664Z,5.81
2018-01-14T06:14:37.118Z,5.73
2018-01-14T06:15:46.843Z,5.83
2018-01-14T06:16:56.301Z,5.74
2018-01-14T06:18:05.765Z,5.8
2018-01-14T06:19:15.221Z,5.7
2018-01-14T06:20:25.214Z,5.67
2018-01-14T06:21:34.732Z,5.66
2018-01-14T06:22:44.181Z,5.73
2018-01-14T06:23:53.897Z,5.66
2018-01-14T06:25:03.357Z,5.67
2018-01-14T06:26:12.829Z,5.7
2018-01-14T06:27:22.539Z,5.73
2018-01-14T06:28:32.413Z,5.6
2018-01-14T06:29:41.339Z,5.69
2018-01-14T06:30:51.064Z,5.63
2018-01-14T06:32:00.514Z,5.69
2018-01-14T06:33:09.967Z,5.58
2018-01-14T06:34:19.686Z,5.65
2018-01-14T06:35:29.146Z,5.7
2018-01-14T06:36:38.606Z,5.6
2018-01-14T06:37:48.332Z,5.73
2018-01-14T06:38:56.989Z,5.7
2018-01-14T06:40:06.443Z,5.66
2018-01-14T06:41:15.633Z,5.62
2018-01-14T06:42:25.089Z,5.73
2018-01-14T06:43:34.535Z,5.62
2018-01-14T06:44:44.003Z,5.62
2018-01-14T06:45:53.460Z,5.69
2018-01-14T06:47:03.183Z,5.74
2018-01-14T06:48:13.176Z,5.77
2018-01-14T06:49:23.153Z,5.67
2018-01-14T06:50:32.605Z,5.63
2018-01-14T06:51:42.071Z,5.66
2018-01-14T06:52:51.533Z,5.69
2018-01-14T06:54:01.246Z,5.63
2018-01-14T06:55:10.970Z,5.7
2018-01-14T06:56:20.713Z,5.62
2018-01-14T06:57:30.426Z,5.7
2018-01-14T06:58:40.145Z,5.7
2018-01-14T06:59:49.600Z,5.69
2018-01-14T07:00:58.851Z,5.69
2018-01-14T07:02:08.643Z,5.69
2018-01-14T07:03:18.359Z,5.66
2018-01-14T07:04:27.559Z,5.75
2018-01-14T07:05:37.274Z,5.62
2018-01-14T07:06:46.783Z,5.73
2018-01-14T07:07:56.764Z,5.63
2018-01-14T07:09:06.494Z,5.7
2018-01-14T07:10:15.969Z,5.7
2018-01-14T07:11:25.158Z,5.63
2018-01-14T07:12:34.618Z,5.6
2018-01-14T07:13:44.356Z,5.63
2018-01-14T07:14:53.814Z,5.6
2018-01-14T07:16:03.794Z,5.63
2018-01-14T07:17:13.525Z,5.6
2018-01-14T07:18:23.514Z,5.63
2018-01-14T07:19:32.443Z,5.7
2018-01-14T07:20:42.165Z,5.63
2018-01-14T07:21:51.626Z,5.63
2018-01-14T07:23:01.130Z,5.62
2018-01-14T07:24:10.597Z,5.62
2018-01-14T07:25:20.057Z,5.66
2018-01-14T07:26:29.249Z,5.66
2018-01-14T07:27:38.456Z,5.63
2018-01-14T07:28:47.911Z,5.6
2018-01-14T07:29:57.898Z,5.62
2018-01-14T07:31:07.631Z,5.66
2018-01-14T07:32:17.352Z,5.66
2018-01-14T07:33:26.603Z,5.66
2018-01-14T07:34:36.469Z,5.6
2018-01-14T07:35:46.346Z,5.69
2018-01-14T07:36:56.070Z,5.65
2018-01-14T07:38:05.588Z,5.69
2018-01-14T07:39:15.352Z,5.6
2018-01-14T07:40:24.564Z,5.6
2018-01-14T07:41:33.794Z,5.55
2018-01-14T07:42:43.343Z,5.59
2018-01-14T07:43:53.065Z,5.58
2018-01-14T07:45:01.993Z,5.56
2018-01-14T07:46:11.527Z,5.59
2018-01-14T07:47:21.499Z,5.58
2018-01-14T07:48:30.959Z,5.65
2018-01-14T07:49:40.415Z,5.59
2018-01-14T07:50:49.606Z,5.65
2018-01-14T07:51:59.583Z,5.66
2018-01-14T07:53:09.093Z,5.63
2018-01-14T07:54:18.273Z,5.63
2018-01-14T07:55:28.248Z,5.6
2018-01-14T07:56:37.984Z,5.7
2018-01-14T07:57:47.975Z,5.66
2018-01-14T07:58:57.965Z,5.7
2018-01-14T08:00:07.421Z,5.63
2018-01-14T08:01:17.144Z,5.62
2018-01-14T08:02:26.617Z,5.65
2018-01-14T08:03:36.599Z,5.66
2018-01-14T08:04:46.311Z,5.67
2018-01-14T08:05:55.762Z,5.69
2018-01-14T08:07:05.223Z,5.67
2018-01-14T08:08:14.681Z,5.75
2018-01-14T08:09:23.877Z,5.74
2018-01-14T08:10:33.339Z,5.75
2018-01-14T08:11:42.843Z,5.77
2018-01-14T08:12:52.817Z,5.84
2018-01-14T08:14:02.264Z,5.8
2018-01-14T08:15:10.935Z,5.78
2018-01-14T08:16:19.862Z,5.78
2018-01-14T08:17:29.318Z,5.73
2018-01-14T08:18:38.845Z,5.81
2018-01-14T08:19:48.574Z,5.78
2018-01-14T08:20:58.300Z,5.87
2018-01-14T08:22:07.490Z,5.83
2018-01-14T08:23:17.204Z,5.85
2018-01-14T08:24:26.924Z,5.81
2018-01-14T08:25:36.184Z,5.87
2018-01-14T08:26:45.644Z,5.88
2018-01-14T08:27:55.364Z,5.99
2018-01-14T08:29:05.364Z,5.99
2018-01-14T08:30:15.082Z,5.98
2018-01-14T08:31:24.815Z,6.01
2018-01-14T08:32:34.546Z,6.02
2018-01-14T08:33:44.267Z,5.99
2018-01-14T08:34:53.996Z,6.05
2018-01-14T08:36:04.047Z,6.17
2018-01-14T08:37:13.507Z,6.19
2018-01-14T08:38:22.963Z,6.3
2018-01-14T08:39:32.956Z,6.32
2018-01-14T08:40:42.947Z,6.28
2018-01-14T08:41:52.408Z,6.32
2018-01-14T08:43:02.139Z,6.36
2018-01-14T08:44:11.335Z,6.4
2018-01-14T08:45:21.044Z,6.35
2018-01-14T08:46:30.230Z,6.43
2018-01-14T08:47:40.230Z,6.48
2018-01-14T08:48:49.963Z,6.51
2018-01-14T08:49:59.956Z,6.48
2018-01-14T08:51:09.684Z,6.42
2018-01-14T08:52:19.143Z,6.46
2018-01-14T08:53:28.658Z,6.5
2018-01-14T08:54:38.117Z,6.43
2018-01-14T08:55:47.573Z,6.51
2018-01-14T08:56:57.352Z,6.53
2018-01-14T08:58:07.083Z,6.6
2018-01-14T08:59:17.111Z,6.51
2018-01-14T09:00:26.572Z,6.57
2018-01-14T09:01:35.761Z,6.48
2018-01-14T09:02:45.328Z,6.55
2018-01-14T09:03:55.116Z,6.53
2018-01-14T09:05:04.612Z,6.58
2018-01-14T09:06:14.088Z,6.58
2018-01-14T09:07:23.017Z,6.61
2018-01-14T09:08:32.467Z,6.65
2018-01-14T09:09:41.943Z,6.6
2018-01-14T09:10:51.678Z,6.65
2018-01-14T09:12:01.675Z,6.68
2018-01-14T09:13:11.136Z,6.64
2018-01-14T09:14:20.590Z,6.63
2018-01-14T09:15:29.781Z,6.5
2018-01-14T09:16:38.968Z,6.6
2018-01-14T09:17:48.686Z,6.43
2018-01-14T09:18:57.347Z,6.46
2018-01-14T09:20:06.855Z,6.6
2018-01-14T09:21:16.324Z,6.35
2018-01-14T09:22:25.780Z,6.39
2018-01-14T09:23:35.029Z,6.3
2018-01-14T09:24:44.908Z,6.36
2018-01-14T09:25:54.367Z,6.35
2018-01-14T09:27:03.292Z,6.25
2018-01-14T09:28:12.531Z,6.27
2018-01-14T09:29:21.992Z,6.27
2018-01-14T09:30:32.011Z,6.24
2018-01-14T09:31:41.508Z,6.27
2018-01-14T09:32:50.980Z,6.21
2018-01-14T09:34:00.969Z,6.25
2018-01-14T09:35:10.700Z,6.21
2018-01-14T09:36:20.423Z,6.14
2018-01-14T09:37:29.879Z,6.17
2018-01-14T09:38:39.765Z,6.1
2018-01-14T09:39:49.750Z,6.13
2018-01-14T09:40:59.367Z,6.11
2018-01-14T09:42:08.895Z,6.19
2018-01-14T09:43:18.370Z,6.06
2018-01-14T09:44:27.580Z,6.14
2018-01-14T09:45:37.296Z,6.08
2018-01-14T09:46:46.777Z,6.13
2018-01-14T09:47:56.570Z,6.11
2018-01-14T09:49:06.288Z,6.06
2018-01-14T09:50:16.056Z,6.16
2018-01-14T09:51:25.779Z,6.14
2018-01-14T09:52:35.244Z,6.11
2018-01-14T09:53:45.245Z,6.24
2018-01-14T09:54:55.011Z,6.19
2018-01-14T09:56:04.745Z,6.21
2018-01-14T09:57:13.961Z,6.25
2018-01-14T09:58:23.423Z,6.28
2018-01-14T09:59:33.413Z,6.27
2018-01-14T10:00:42.860Z,6.28
2018-01-14T10:01:52.605Z,6.27
2018-01-14T10:03:02.581Z,6.4
2018-01-14T10:04:12.303Z,6.4
2018-01-14T10:05:22.305Z,6.55
2018-01-14T10:06:31.509Z,6.43
2018-01-14T10:07:41.220Z,6.5
2018-01-14T10:08:50.964Z,6.53
2018-01-14T10:10:00.701Z,6.46
2018-01-14T10:11:10.158Z,6.46
2018-01-14T10:12:19.934Z,6.5
2018-01-14T10:13:29.143Z,6.45
2018-01-14T10:14:38.618Z,6.51
2018-01-14T10:15:47.812Z,6.57
2018-01-14T10:16:56.775Z,6.63
2018-01-14T10:18:06.533Z,6.57
2018-01-14T10:19:16.266Z,6.5
2018-01-14T10:20:25.723Z,6.63
2018-01-14T10:21:35.212Z,6.55
2018-01-14T10:22:44.155Z,6.53
2018-01-14T10:23:53.935Z,6.58
2018-01-14T10:25:03.388Z,6.71
2018-01-14T10:26:13.131Z,6.63
2018-01-14T10:27:22.913Z,6.63
2018-01-14T10:28:32.671Z,6.61
2018-01-14T10:29:42.138Z,6.63
2018-01-14T10:30:51.646Z,6.72
2018-01-14T10:32:01.099Z,6.76
2018-01-14T10:33:10.309Z,6.72
2018-01-14T10:34:20.038Z,6.75
2018-01-14T10:35:29.306Z,6.73
2018-01-14T10:36:39.033Z,6.71
2018-01-14T10:37:48.509Z,6.75
2018-01-14T10:38:58.257Z,6.72
2018-01-14T10:40:07.728Z,6.72
2018-01-14T10:41:17.180Z,6.79
2018-01-14T10:42:26.637Z,6.76
2018-01-14T10:43:36.093Z,6.82
2018-01-14T10:44:44.819Z,6.89
2018-01-14T10:45:54.802Z,6.9
2018-01-14T10:47:04.330Z,6.91
2018-01-14T10:48:14.073Z,6.9
2018-01-14T10:49:23.799Z,6.89
2018-01-14T10:50:33.282Z,6.9
2018-01-14T10:51:43.272Z,6.93
2018-01-14T10:52:53.006Z,6.89
2018-01-14T10:54:02.213Z,6.94
2018-01-14T10:55:11.934Z,6.94
2018-01-14T10:56:21.716Z,6.99
2018-01-14T10:57:31.514Z,7
2018-01-14T10:58:41.418Z,7.08
2018-01-14T10:59:50.632Z,7.04
2018-01-14T11:01:00.361Z,7.04
2018-01-14T11:02:10.304Z,7.01
2018-01-14T11:03:20.034Z,7.09
2018-01-14T11:04:29.299Z,7.07
2018-01-14T11:05:39.165Z,7.05
2018-01-14T11:06:48.487Z,7.16
2018-01-14T11:07:57.795Z,7.27
2018-01-14T11:09:07.606Z,7.41
2018-01-14T11:10:19.790Z,7.42
2018-01-14T11:11:29.579Z,7.34
2018-01-14T11:12:39.162Z,7.42
2018-01-14T11:13:48.402Z,7.47
2018-01-14T11:14:57.912Z,7.37
2018-01-14T11:16:07.689Z,7.41
2018-01-14T11:17:16.928Z,7.54
2018-01-14T11:18:26.397Z,7.58
2018-01-14T11:19:36.117Z,7.66
2018-01-14T11:20:46.194Z,7.77
2018-01-14T11:21:55.686Z,7.88
2018-01-14T11:23:04.623Z,7.95
2018-01-14T11:24:14.076Z,7.88
2018-01-14T11:25:23.275Z,7.88
2018-01-14T11:26:33.267Z,7.96
2018-01-14T11:27:42.983Z,8.13
2018-01-14T11:28:52.713Z,8.02
2018-01-14T11:30:02.451Z,7.84
2018-01-14T11:31:12.184Z,7.95
2018-01-14T11:32:21.384Z,7.88
2018-01-14T11:33:30.611Z,7.99
2018-01-14T11:34:40.594Z,8.06
2018-01-14T11:35:50.049Z,8.06
2018-01-14T11:36:59.240Z,8.04
2018-01-14T11:38:08.694Z,8.14
2018-01-14T11:39:18.150Z,8.1
2018-01-14T11:40:27.940Z,8.27
2018-01-14T11:41:37.496Z,8.34
2018-01-14T11:42:46.966Z,8.29
2018-01-14T11:43:56.434Z,8.18
2018-01-14T11:45:06.175Z,8.22
2018-01-14T11:46:15.917Z,8.14
2018-01-14T11:47:25.367Z,8.1
2018-01-14T11:48:34.291Z,8.1
2018-01-14T11:49:43.757Z,8.12
2018-01-14T11:50:53.471Z,8.13
2018-01-14T11:52:03.012Z,8.17
2018-01-14T11:53:12.219Z,8.13
2018-01-14T11:54:22.085Z,8.04
2018-01-14T11:55:32.104Z,8.07
2018-01-14T11:56:41.568Z,8.06
2018-01-14T11:57:51.286Z,8.09
2018-01-14T11:59:01.093Z,7.96
2018-01-14T12:00:10.311Z,8.04
2018-01-14T12:01:19.572Z,7.96
2018-01-14T12:02:29.063Z,8.04
2018-01-14T12:03:39.119Z,8
2018-01-14T12:04:48.600Z,8
2018-01-14T12:05:58.071Z,8
2018-01-14T12:07:06.994Z,8.02
2018-01-14T12:08:16.710Z,8.03
2018-01-14T12:09:26.449Z,8
2018-01-14T12:10:36.167Z,8.03
2018-01-14T12:11:45.624Z,8.04
2018-01-14T12:12:55.655Z,8.04
2018-01-14T12:14:05.429Z,8.13
2018-01-14T12:15:15.162Z,8.09
2018-01-14T12:16:24.888Z,8.1
2018-01-14T12:17:34.360Z,8.12
2018-01-14T12:18:44.073Z,8.13
2018-01-14T12:19:53.528Z,8.12
2018-01-14T12:21:03.513Z,8.25
2018-01-14T12:22:12.554Z,8.2
2018-01-14T12:23:22.545Z,8.2
2018-01-14T12:24:32.536Z,8.2
2018-01-14T12:25:41.986Z,8.24
2018-01-14T12:26:51.441Z,8.27
2018-01-14T12:28:00.766Z,8.34
2018-01-14T12:29:10.491Z,8.36
2018-01-14T12:30:20.472Z,8.37
2018-01-14T12:31:29.659Z,8.4
2018-01-14T12:32:39.370Z,8.36
2018-01-14T12:33:49.082Z,8.36
2018-01-14T12:34:58.273Z,8.37
2018-01-14T12:36:07.747Z,8.4
2018-01-14T12:37:17.499Z,8.47
2018-01-14T12:38:26.966Z,8.45
2018-01-14T12:39:36.712Z,8.52
2018-01-14T12:40:46.171Z,8.52
2018-01-14T12:41:55.698Z,8.49
2018-01-14T12:43:05.460Z,8.45
2018-01-14T12:44:15.189Z,8.64
2018-01-14T12:45:24.652Z,8.55
2018-01-14T12:46:34.111Z,8.54
2018-01-14T12:47:43.834Z,8.52
2018-01-14T12:48:53.564Z,8.63
2018-01-14T12:50:03.026Z,8.6
2018-01-14T12:51:13.025Z,8.54
2018-01-14T12:52:22.224Z,8.55
2018-01-14T12:53:31.687Z,8.55
2018-01-14T12:54:41.144Z,8.6
2018-01-14T12:55:50.619Z,8.64
2018-01-14T12:56:59.803Z,8.6
2018-01-14T12:58:09.257Z,8.6
2018-01-14T12:59:18.976Z,8.64
2018-01-14T13:00:28.963Z,8.55
2018-01-14T13:01:38.699Z,8.65
2018-01-14T13:02:47.628Z,8.63
2018-01-14T13:03:56.822Z,8.61
2018-01-14T13:05:06.270Z,8.67
2018-01-14T13:06:15.730Z,8.71
2018-01-14T13:07:24.937Z,8.7
2018-01-14T13:08:34.400Z,8.7
2018-01-14T13:09:43.862Z,8.73
2018-01-14T13:10:52.528Z,8.78
2018-01-14T13:12:01.723Z,8.67
2018-01-14T13:13:10.653Z,8.83
2018-01-14T13:14:20.372Z,8.76
2018-01-14T13:15:30.170Z,8.78
2018-01-14T13:16:39.397Z,8.79
2018-01-14T13:17:48.979Z,8.68
2018-01-14T13:18:58.476Z,8.73
2018-01-14T13:20:07.434Z,8.7
2018-01-14T13:21:17.447Z,8.68
2018-01-14T13:22:26.654Z,8.68
2018-01-14T13:23:36.404Z,8.83
2018-01-14T13:24:46.151Z,8.86
2018-01-14T13:25:55.893Z,8.79
2018-01-14T13:27:05.890Z,8.91
2018-01-14T13:28:15.621Z,8.88
2018-01-14T13:29:25.230Z,8.97
2018-01-14T13:30:35.330Z,8.91
2018-01-14T13:31:44.927Z,9.01
2018-01-14T13:32:54.135Z,9.03
2018-01-14T13:34:03.659Z,9
2018-01-14T13:35:13.152Z,9.03
2018-01-14T13:36:22.632Z,9.03
2018-01-14T13:37:32.369Z,8.96
2018-01-14T13:38:42.104Z,8.89
2018-01-14T13:39:51.039Z,8.97
2018-01-14T13:41:01.033Z,8.89
2018-01-14T13:42:10.512Z,8.85
2018-01-14T13:43:20.227Z,8.8
2018-01-14T13:44:29.469Z,8.78
2018-01-14T13:45:39.472Z,8.68
2018-01-14T13:46:49.513Z,8.73
2018-01-14T13:47:59.266Z,8.7
2018-01-14T13:49:08.989Z,8.67
2018-01-14T13:50:19.014Z,8.65
2018-01-14T13:51:28.506Z,8.7
2018-01-14T13:52:38.502Z,8.7
2018-01-14T13:53:48.240Z,8.67
2018-01-14T13:54:57.982Z,8.65
2018-01-14T13:56:07.481Z,8.71
2018-01-14T13:57:16.957Z,8.67
2018-01-14T13:58:26.430Z,8.71
2018-01-14T13:59:35.636Z,8.73
2018-01-14T14:00:45.352Z,8.63
2018-01-14T14:01:54.844Z,8.63
2018-01-14T14:03:04.304Z,8.65
2018-01-14T14:04:13.819Z,8.55
2018-01-14T14:05:23.178Z,8.64
2018-01-14T14:06:32.529Z,8.63
2018-01-14T14:07:42.663Z,8.6
2018-01-14T14:08:52.142Z,8.61
2018-01-14T14:10:01.867Z,8.67
2018-01-14T14:11:11.373Z,8.68
2018-01-14T14:12:20.866Z,8.65
2018-01-14T14:13:30.144Z,8.64
2018-01-14T14:14:39.680Z,8.7
2018-01-14T14:15:49.426Z,8.7
2018-01-14T14:16:58.997Z,8.63
2018-01-14T14:18:08.466Z,8.58
2018-01-14T14:19:17.920Z,8.65
2018-01-14T14:20:27.950Z,8.64
2018-01-14T14:21:37.451Z,8.65
2018-01-14T14:22:46.929Z,8.65
2018-01-14T14:23:56.164Z,8.55
2018-01-14T14:25:05.386Z,8.61
2018-01-14T14:26:14.901Z,8.6
2018-01-14T14:27:24.629Z,8.64
2018-01-14T14:28:34.432Z,8.49
2018-01-14T14:29:43.884Z,8.49
2018-01-14T14:30:53.816Z,8.47
2018-01-14T14:32:03.670Z,8.49
2018-01-14T14:33:13.405Z,8.6
2018-01-14T14:34:23.133Z,8.61
2018-01-14T14:35:32.600Z,8.54
2018-01-14T14:36:41.533Z,8.57
2018-01-14T14:37:50.835Z,8.49
2018-01-14T14:39:00.606Z,8.45
2018-01-14T14:40:10.079Z,8.46
2018-01-14T14:41:20.145Z,8.46
2018-01-14T14:42:29.707Z,8.4
2018-01-14T14:43:39.114Z,8.39
2018-01-14T14:44:49.168Z,8.29
2018-01-14T14:45:58.635Z,8.37
2018-01-14T14:47:08.225Z,8.36
2018-01-14T14:48:17.759Z,8.17
2018-01-14T14:49:27.416Z,8.34
2018-01-14T14:50:37.308Z,8.36
2018-01-14T14:51:47.044Z,8.22
2018-01-14T14:52:56.830Z,8.2
2018-01-14T14:54:06.304Z,8.28
2018-01-14T14:55:15.562Z,8.14
2018-01-14T14:56:25.335Z,8.09
2018-01-14T14:57:34.855Z,8.1
2018-01-14T14:58:44.642Z,8.12
2018-01-14T14:59:53.889Z,8.13
2018-01-14T15:01:03.930Z,8.1
2018-01-14T15:02:13.129Z,8.07
2018-01-14T15:03:22.668Z,8.04
2018-01-14T15:04:32.473Z,8.07
2018-01-14T15:05:41.954Z,8.04
2018-01-14T15:06:51.163Z,8.03
2018-01-14T15:08:00.396Z,8.03
2018-01-14T15:09:09.639Z,7.96
2018-01-14T15:10:18.600Z,7.95
2018-01-14T15:11:28.085Z,7.86
2018-01-14T15:12:37.847Z,7.88
2018-01-14T15:13:47.400Z,7.88
2018-01-14T15:14:56.647Z,7.67
2018-01-14T15:16:06.145Z,7.6
2018-01-14T15:17:15.384Z,7.66
2018-01-14T15:18:24.848Z,7.58
2018-01-14T15:19:34.325Z,7.48
2018-01-14T15:20:43.821Z,7.41
2018-01-14T15:21:53.046Z,7.34
2018-01-14T15:23:03.103Z,7.29
2018-01-14T15:24:12.604Z,7.26
2018-01-14T15:25:22.061Z,7.15
2018-01-14T15:26:31.642Z,7.12
2018-01-14T15:27:40.896Z,7.08
2018-01-14T15:28:50.395Z,7
2018-01-14T15:29:59.938Z,6.94